sensor_id;sensor_type;location;lat;lon;timestamp;pressure;altitude;pressure_sealevel;temperature;humidity
64544;BME280;50936;51.660;5.616;2023-09-19T00:00:41;100413.91;;;28.92;42.09
64544;BME280;50936;51.660;5.616;2023-09-19T00:03:29;100416.22;;;28.95;42.51
64544;BME280;50936;51.660;5.616;2023-09-19T00:06:18;100423.94;;;28.93;42.50
64544;BME280;50936;51.660;5.616;2023-09-19T00:09:05;100421.16;;;28.93;42.13
64544;BME280;50936;51.660;5.616;2023-09-19T00:11:57;100418.38;;;28.93;42.16
64544;BME280;50936;51.660;5.616;2023-09-19T00:14:44;100422.84;;;28.94;42.21
64544;BME280;50936;51.660;5.616;2023-09-19T00:17:31;100416.69;;;28.92;42.30
64544;BME280;50936;51.660;5.616;2023-09-19T00:20:19;100422.22;;;28.92;42.35
64544;BME280;50936;51.660;5.616;2023-09-19T00:23:08;100427.19;;;28.90;42.43
64544;BME280;50936;51.660;5.616;2023-09-19T00:25:58;100428.41;;;28.94;42.20
64544;BME280;50936;51.660;5.616;2023-09-19T00:28:47;100429.72;;;28.91;42.30
64544;BME280;50936;51.660;5.616;2023-09-19T00:31:34;100440.63;;;28.93;41.94
64544;BME280;50936;51.660;5.616;2023-09-19T00:34:24;100440.00;;;28.91;41.92
64544;BME280;50936;51.660;5.616;2023-09-19T00:37:11;100439.16;;;28.90;41.94
64544;BME280;50936;51.660;5.616;2023-09-19T00:39:59;100439.41;;;28.89;42.21
64544;BME280;50936;51.660;5.616;2023-09-19T00:42:47;100442.78;;;28.91;41.89
64544;BME280;50936;51.660;5.616;2023-09-19T00:45:36;100451.13;;;28.91;41.90
64544;BME280;50936;51.660;5.616;2023-09-19T00:48:29;100445.56;;;28.91;42.25
64544;BME280;50936;51.660;5.616;2023-09-19T00:51:17;100453.03;;;28.90;41.88
64544;BME280;50936;51.660;5.616;2023-09-19T00:54:07;100448.81;;;28.88;42.16
64544;BME280;50936;51.660;5.616;2023-09-19T00:56:55;100449.88;;;28.87;42.20
64544;BME280;50936;51.660;5.616;2023-09-19T00:59:43;100451.81;;;28.86;41.73
64544;BME280;50936;51.660;5.616;2023-09-19T01:02:31;100453.78;;;28.86;41.90
64544;BME280;50936;51.660;5.616;2023-09-19T01:05:19;100456.53;;;28.86;41.90
64544;BME280;50936;51.660;5.616;2023-09-19T01:08:06;100468.72;;;28.85;41.62
64544;BME280;50936;51.660;5.616;2023-09-19T01:11:11;100465.97;;;28.85;41.62
64544;BME280;50936;51.660;5.616;2023-09-19T01:17:58;100476.75;;;28.93;41.76
64544;BME280;50936;51.660;5.616;2023-09-19T01:30:51;100491.47;;;28.82;41.42
64544;BME280;50936;51.660;5.616;2023-09-19T01:34:00;100489.75;;;28.80;41.50
64544;BME280;50936;51.660;5.616;2023-09-19T01:36:50;100491.94;;;28.78;41.32
64544;BME280;50936;51.660;5.616;2023-09-19T01:39:38;100493.25;;;28.76;41.38
64544;BME280;50936;51.660;5.616;2023-09-19T01:42:31;100497.94;;;28.75;41.27
64544;BME280;50936;51.660;5.616;2023-09-19T01:49:01;100488.53;;;28.76;40.92
64544;BME280;50936;51.660;5.616;2023-09-19T01:52:07;100495.78;;;28.77;40.95
64544;BME280;50936;51.660;5.616;2023-09-19T01:55:06;100491.53;;;28.75;41.21
64544;BME280;50936;51.660;5.616;2023-09-19T01:58:16;100495.78;;;28.77;41.00
64544;BME280;50936;51.660;5.616;2023-09-19T02:01:11;100494.19;;;28.70;41.11
64544;BME280;50936;51.660;5.616;2023-09-19T02:04:03;100492.28;;;28.70;40.84
64544;BME280;50936;51.660;5.616;2023-09-19T02:06:51;100495.06;;;28.70;41.13
64544;BME280;50936;51.660;5.616;2023-09-19T02:09:38;100495.06;;;28.70;40.78
64544;BME280;50936;51.660;5.616;2023-09-19T02:12:26;100497.19;;;28.68;40.75
64544;BME280;50936;51.660;5.616;2023-09-19T02:15:14;100493.34;;;28.69;41.01
64544;BME280;50936;51.660;5.616;2023-09-19T02:18:02;100493.56;;;28.68;40.71
64544;BME280;50936;51.660;5.616;2023-09-19T02:20:50;100496.34;;;28.68;40.99
64544;BME280;50936;51.660;5.616;2023-09-19T02:23:39;100495.50;;;28.67;40.72
64544;BME280;50936;51.660;5.616;2023-09-19T02:26:28;100501.06;;;28.67;40.84
64544;BME280;50936;51.660;5.616;2023-09-19T02:29:15;100497.69;;;28.65;40.65
64544;BME280;50936;51.660;5.616;2023-09-19T02:32:02;100503.22;;;28.65;40.39
64544;BME280;50936;51.660;5.616;2023-09-19T02:34:51;100507.06;;;28.64;40.52
64544;BME280;50936;51.660;5.616;2023-09-19T02:37:38;100502.63;;;28.63;40.30
64544;BME280;50936;51.660;5.616;2023-09-19T02:40:25;100519.91;;;28.65;40.38
64544;BME280;50936;51.660;5.616;2023-09-19T02:43:13;100518.66;;;28.61;40.58
64544;BME280;50936;51.660;5.616;2023-09-19T02:46:00;100516.50;;;28.63;40.36
64544;BME280;50936;51.660;5.616;2023-09-19T02:48:50;100518.66;;;28.61;40.33
64544;BME280;50936;51.660;5.616;2023-09-19T02:51:37;100514.81;;;28.62;40.16
64544;BME280;50936;51.660;5.616;2023-09-19T02:54:24;100511.41;;;28.60;40.15
64544;BME280;50936;51.660;5.616;2023-09-19T02:57:12;100518.03;;;28.59;39.98
64544;BME280;50936;51.660;5.616;2023-09-19T03:00:02;100524.69;;;28.58;39.71
64544;BME280;50936;51.660;5.616;2023-09-19T03:02:54;100521.31;;;28.56;39.60
64544;BME280;50936;51.660;5.616;2023-09-19T03:05:42;100529.63;;;28.56;39.88
64544;BME280;50936;51.660;5.616;2023-09-19T03:08:37;100529.03;;;28.54;39.48
64544;BME280;50936;51.660;5.616;2023-09-19T03:11:26;100520.03;;;28.52;39.67
64544;BME280;50936;51.660;5.616;2023-09-19T03:14:16;100523.91;;;28.51;39.41
64544;BME280;50936;51.660;5.616;2023-09-19T03:17:05;100526.53;;;28.46;38.83
64544;BME280;50936;51.660;5.616;2023-09-19T03:19:53;100518.03;;;28.40;38.77
64544;BME280;50936;51.660;5.616;2023-09-19T03:22:41;100524.69;;;28.39;38.90
64544;BME280;50936;51.660;5.616;2023-09-19T03:25:28;100518.97;;;28.34;38.93
64544;BME280;50936;51.660;5.616;2023-09-19T03:28:16;100521.13;;;28.32;38.60
64544;BME280;50936;51.660;5.616;2023-09-19T03:31:05;100529.47;;;28.32;38.56
64544;BME280;50936;51.660;5.616;2023-09-19T03:33:55;100531.16;;;28.33;38.52
64544;BME280;50936;51.660;5.616;2023-09-19T03:36:43;100528.84;;;28.30;38.50
64544;BME280;50936;51.660;5.616;2023-09-19T03:39:30;100527.16;;;28.29;38.48
64544;BME280;50936;51.660;5.616;2023-09-19T03:42:18;100524.81;;;28.26;38.34
64544;BME280;50936;51.660;5.616;2023-09-19T03:45:12;100516.50;;;28.26;38.31
64544;BME280;50936;51.660;5.616;2023-09-19T03:48:09;100511.59;;;28.28;38.11
64544;BME280;50936;51.660;5.616;2023-09-19T03:50:57;100511.41;;;28.23;38.37
64544;BME280;50936;51.660;5.616;2023-09-19T03:53:44;100514.81;;;28.25;38.00
64544;BME280;50936;51.660;5.616;2023-09-19T03:56:32;100513.09;;;28.24;38.17
64544;BME280;50936;51.660;5.616;2023-09-19T03:59:19;100512.47;;;28.22;38.00
64544;BME280;50936;51.660;5.616;2023-09-19T04:02:07;100516.97;;;28.23;38.17
64544;BME280;50936;51.660;5.616;2023-09-19T04:04:58;100517.44;;;28.20;38.35
64544;BME280;50936;51.660;5.616;2023-09-19T04:07:46;100511.88;;;28.20;38.01
64544;BME280;50936;51.660;5.616;2023-09-19T04:10:33;100511.41;;;28.23;38.28
64544;BME280;50936;51.660;5.616;2023-09-19T04:13:20;100515.25;;;28.22;37.89
64544;BME280;50936;51.660;5.616;2023-09-19T04:16:08;100519.13;;;28.21;37.77
64544;BME280;50936;51.660;5.616;2023-09-19T04:18:56;100512.94;;;28.19;37.56
64544;BME280;50936;51.660;5.616;2023-09-19T04:21:43;100522.38;;;28.18;38.01
64544;BME280;50936;51.660;5.616;2023-09-19T04:24:31;100532.38;;;28.19;38.01
64544;BME280;50936;51.660;5.616;2023-09-19T04:27:19;100530.69;;;28.18;38.08
64544;BME280;50936;51.660;5.616;2023-09-19T04:30:07;100530.69;;;28.18;37.88
64544;BME280;50936;51.660;5.616;2023-09-19T04:32:58;100542.88;;;28.17;37.47
64544;BME280;50936;51.660;5.616;2023-09-19T04:35:52;100552.91;;;28.18;37.74
64544;BME280;50936;51.660;5.616;2023-09-19T04:38:40;100553.34;;;28.15;37.97
64544;BME280;50936;51.660;5.616;2023-09-19T04:41:27;100559.53;;;28.17;37.66
64544;BME280;50936;51.660;5.616;2023-09-19T04:44:15;100573.41;;;28.17;37.84
64544;BME280;50936;51.660;5.616;2023-09-19T04:47:03;100576.19;;;28.17;37.72
64544;BME280;50936;51.660;5.616;2023-09-19T04:49:50;100584.06;;;28.20;38.09
64544;BME280;50936;51.660;5.616;2023-09-19T04:52:41;100576.78;;;28.19;37.83
64544;BME280;50936;51.660;5.616;2023-09-19T04:55:32;100584.91;;;28.20;38.13
64544;BME280;50936;51.660;5.616;2023-09-19T04:58:22;100583.63;;;28.23;38.14
64544;BME280;50936;51.660;5.616;2023-09-19T05:01:09;100581.69;;;28.23;38.01
64544;BME280;50936;51.660;5.616;2023-09-19T05:03:59;100579.75;;;28.24;38.18
64544;BME280;50936;51.660;5.616;2023-09-19T05:06:46;100577.84;;;28.25;38.12
64544;BME280;50936;51.660;5.616;2023-09-19T05:09:33;100583.63;;;28.23;38.21
64544;BME280;50936;51.660;5.616;2023-09-19T05:12:21;100584.22;;;28.25;38.14
64544;BME280;50936;51.660;5.616;2023-09-19T05:15:08;100592.56;;;28.25;38.14
64544;BME280;50936;51.660;5.616;2023-09-19T05:17:55;100597.66;;;28.28;38.28
64544;BME280;50936;51.660;5.616;2023-09-19T05:20:44;100595.94;;;28.27;38.12
64544;BME280;50936;51.660;5.616;2023-09-19T05:23:31;100595.94;;;28.27;38.11
64544;BME280;50936;51.660;5.616;2023-09-19T05:26:19;100593.41;;;28.26;38.25
64544;BME280;50936;51.660;5.616;2023-09-19T05:29:07;100599.78;;;28.26;38.34
64544;BME280;50936;51.660;5.616;2023-09-19T05:31:54;100592.56;;;28.25;38.32
64544;BME280;50936;51.660;5.616;2023-09-19T05:34:42;100593.63;;;28.24;38.18
64544;BME280;50936;51.660;5.616;2023-09-19T05:37:29;100597.00;;;28.26;38.31
64544;BME280;50936;51.660;5.616;2023-09-19T05:40:19;100602.34;;;28.28;38.49
64544;BME280;50936;51.660;5.616;2023-09-19T05:43:07;100595.72;;;28.29;38.19
64544;BME280;50936;51.660;5.616;2023-09-19T05:45:55;100598.94;;;28.26;38.29
64544;BME280;50936;51.660;5.616;2023-09-19T05:48:43;100594.25;;;28.26;38.36
64544;BME280;50936;51.660;5.616;2023-09-19T05:51:31;100598.94;;;28.26;38.37
64544;BME280;50936;51.660;5.616;2023-09-19T05:54:18;100596.41;;;28.24;38.49
64544;BME280;50936;51.660;5.616;2023-09-19T05:57:06;100599.78;;;28.26;38.37
64544;BME280;50936;51.660;5.616;2023-09-19T05:59:53;100594.25;;;28.26;38.75
64544;BME280;50936;51.660;5.616;2023-09-19T06:02:41;100595.09;;;28.27;38.44
64544;BME280;50936;51.660;5.616;2023-09-19T06:05:28;100590.00;;;28.23;38.38
64544;BME280;50936;51.660;5.616;2023-09-19T06:08:17;100601.72;;;28.26;38.73
64544;BME280;50936;51.660;5.616;2023-09-19T06:11:04;100598.09;;;28.25;38.51
64544;BME280;50936;51.660;5.616;2023-09-19T06:13:54;100594.25;;;28.26;38.24
64544;BME280;50936;51.660;5.616;2023-09-19T06:16:41;100602.34;;;28.28;38.57
64544;BME280;50936;51.660;5.616;2023-09-19T06:19:29;100597.00;;;28.26;38.72
64544;BME280;50936;51.660;5.616;2023-09-19T06:22:16;100601.50;;;28.27;38.46
64544;BME280;50936;51.660;5.616;2023-09-19T06:25:06;100604.28;;;28.27;38.56
64544;BME280;50936;51.660;5.616;2023-09-19T06:27:54;100607.91;;;28.28;38.69
64544;BME280;50936;51.660;5.616;2023-09-19T06:30:42;100607.06;;;28.27;38.46
64544;BME280;50936;51.660;5.616;2023-09-19T06:33:30;100613.84;;;28.31;38.63
64544;BME280;50936;51.660;5.616;2023-09-19T06:36:18;100618.16;;;28.27;38.55
64544;BME280;50936;51.660;5.616;2023-09-19T06:39:07;100615.63;;;28.26;38.77
64544;BME280;50936;51.660;5.616;2023-09-19T06:41:57;100627.56;;;28.26;38.65
64544;BME280;50936;51.660;5.616;2023-09-19T06:44:45;100629.28;;;28.27;38.64
64544;BME280;50936;51.660;5.616;2023-09-19T06:47:32;100629.28;;;28.27;38.52
64544;BME280;50936;51.660;5.616;2023-09-19T06:50:22;100632.66;;;28.29;38.51
64544;BME280;50936;51.660;5.616;2023-09-19T06:53:10;100633.50;;;28.30;38.92
64544;BME280;50936;51.660;5.616;2023-09-19T06:55:58;100633.75;;;28.28;38.49
64544;BME280;50936;51.660;5.616;2023-09-19T06:58:45;100632.44;;;28.31;38.93
64544;BME280;50936;51.660;5.616;2023-09-19T07:01:33;100627.94;;;28.30;38.94
64544;BME280;50936;51.660;5.616;2023-09-19T07:04:21;100624.94;;;28.31;38.84
64544;BME280;50936;51.660;5.616;2023-09-19T07:07:08;100622.16;;;28.31;38.79
64544;BME280;50936;51.660;5.616;2023-09-19T07:09:57;100626.66;;;28.32;38.59
64544;BME280;50936;51.660;5.616;2023-09-19T07:12:44;100622.78;;;28.33;38.98
64544;BME280;50936;51.660;5.616;2023-09-19T07:15:33;100631.34;;;28.32;38.73
64544;BME280;50936;51.660;5.616;2023-09-19T07:18:22;100632.84;;;28.34;38.88
64544;BME280;50936;51.660;5.616;2023-09-19T07:21:10;100638.38;;;28.34;39.01
64544;BME280;50936;51.660;5.616;2023-09-19T07:24:02;100634.50;;;28.35;39.03
64544;BME280;50936;51.660;5.616;2023-09-19T07:26:50;100650.94;;;28.37;38.72
64544;BME280;50936;51.660;5.616;2023-09-19T07:29:37;100637.94;;;28.37;39.02
64544;BME280;50936;51.660;5.616;2023-09-19T07:32:25;100634.69;;;28.40;38.87
64544;BME280;50936;51.660;5.616;2023-09-19T07:35:12;100634.69;;;28.40;38.96
64544;BME280;50936;51.660;5.616;2023-09-19T07:37:59;100633.00;;;28.39;38.81
64544;BME280;50936;51.660;5.616;2023-09-19T07:40:48;100635.16;;;28.37;38.54
64544;BME280;50936;51.660;5.616;2023-09-19T07:43:36;100640.53;;;28.32;38.65
64544;BME280;50936;51.660;5.616;2023-09-19T07:46:25;100641.00;;;28.29;38.71
64544;BME280;50936;51.660;5.616;2023-09-19T07:49:13;100646.38;;;28.24;38.53
64544;BME280;50936;51.660;5.616;2023-09-19T07:52:00;100639.59;;;28.20;38.42
64544;BME280;50936;51.660;5.616;2023-09-19T07:54:48;100640.03;;;28.17;38.42
64544;BME280;50936;51.660;5.616;2023-09-19T07:57:36;100635.09;;;28.19;38.58
64544;BME280;50936;51.660;5.616;2023-09-19T08:00:24;100641.31;;;28.21;38.54
64544;BME280;50936;51.660;5.616;2023-09-19T08:03:11;100651.09;;;28.23;38.51
64544;BME280;50936;51.660;5.616;2023-09-19T08:06:03;100649.78;;;28.26;38.89
64544;BME280;50936;51.660;5.616;2023-09-19T08:08:51;100651.47;;;28.27;38.92
64544;BME280;50936;51.660;5.616;2023-09-19T08:11:40;100646.53;;;28.29;38.84
64544;BME280;50936;51.660;5.616;2023-09-19T08:14:27;100656.59;;;28.30;38.61
64544;BME280;50936;51.660;5.616;2023-09-19T08:17:16;100655.28;;;28.33;38.75
64544;BME280;50936;51.660;5.616;2023-09-19T08:20:04;100660.00;;;28.32;38.69
64544;BME280;50936;51.660;5.616;2023-09-19T08:22:53;100650.09;;;28.36;38.94
64544;BME280;50936;51.660;5.616;2023-09-19T08:25:43;100648.41;;;28.35;38.94
64544;BME280;50936;51.660;5.616;2023-09-19T08:28:32;100645.63;;;28.35;38.92
64544;BME280;50936;51.660;5.616;2023-09-19T08:31:20;100650.09;;;28.36;38.74
64544;BME280;50936;51.660;5.616;2023-09-19T08:34:08;100640.72;;;28.37;39.04
64544;BME280;50936;51.660;5.616;2023-09-19T08:36:55;100647.94;;;28.38;38.86
64544;BME280;50936;51.660;5.616;2023-09-19T08:39:45;100650.09;;;28.36;39.03
64544;BME280;50936;51.660;5.616;2023-09-19T08:45:41;100657.78;;;28.41;38.94
64544;BME280;50936;51.660;5.616;2023-09-19T08:48:31;100645.78;;;28.40;38.81
64544;BME280;50936;51.660;5.616;2023-09-19T08:51:37;100651.72;;;28.44;38.58
64544;BME280;50936;51.660;5.616;2023-09-19T08:54:35;100648.13;;;28.44;38.99
64544;BME280;50936;51.660;5.616;2023-09-19T08:57:28;100655.84;;;28.41;38.97
64544;BME280;50936;51.660;5.616;2023-09-19T09:00:16;100643.22;;;28.39;38.93
64544;BME280;50936;51.660;5.616;2023-09-19T09:03:09;100654.75;;;28.42;38.97
64544;BME280;50936;51.660;5.616;2023-09-19T09:05:59;100653.06;;;28.41;38.78
64544;BME280;50936;51.660;5.616;2023-09-19T09:08:46;100653.06;;;28.41;38.78
64544;BME280;50936;51.660;5.616;2023-09-19T09:11:38;100655.59;;;28.43;38.84
64544;BME280;50936;51.660;5.616;2023-09-19T09:14:27;100654.75;;;28.42;38.89
64544;BME280;50936;51.660;5.616;2023-09-19T09:17:14;100653.06;;;28.41;39.00
64544;BME280;50936;51.660;5.616;2023-09-19T09:20:02;100653.66;;;28.44;39.02
64544;BME280;50936;51.660;5.616;2023-09-19T09:22:56;100650.44;;;28.47;38.87
64544;BME280;50936;51.660;5.616;2023-09-19T09:25:54;100654.75;;;28.42;38.96
64544;BME280;50936;51.660;5.616;2023-09-19T09:28:48;100648.56;;;28.40;38.76
64544;BME280;50936;51.660;5.616;2023-09-19T09:31:37;100645.78;;;28.40;38.69
64544;BME280;50936;51.660;5.616;2023-09-19T09:34:33;100633.78;;;28.47;38.66
64544;BME280;50936;51.660;5.616;2023-09-19T09:37:21;100612.00;;;28.44;38.76
64544;BME280;50936;51.660;5.616;2023-09-19T09:40:11;100618.19;;;28.46;38.79
64544;BME280;50936;51.660;5.616;2023-09-19T09:43:25;100622.19;;;28.50;38.80
64544;BME280;50936;51.660;5.616;2023-09-19T09:46:18;100632.06;;;28.46;38.78
64544;BME280;50936;51.660;5.616;2023-09-19T09:49:10;100627.13;;;28.48;38.80
64544;BME280;50936;51.660;5.616;2023-09-19T09:52:12;100638.47;;;28.46;38.80
64544;BME280;50936;51.660;5.616;2023-09-19T09:55:06;100635.47;;;28.48;38.80
64544;BME280;50936;51.660;5.616;2023-09-19T09:58:17;100629.03;;;28.54;39.04
64544;BME280;50936;51.660;5.616;2023-09-19T10:01:05;100644.41;;;28.50;39.03
64544;BME280;50936;51.660;5.616;2023-09-19T10:03:57;100632.22;;;28.51;39.06
64544;BME280;50936;51.660;5.616;2023-09-19T10:06:48;100628.63;;;28.50;39.32
64544;BME280;50936;51.660;5.616;2023-09-19T10:09:45;100633.72;;;28.53;39.28
64544;BME280;50936;51.660;5.616;2023-09-19T10:12:34;100636.69;;;28.52;39.69
64544;BME280;50936;51.660;5.616;2023-09-19T10:15:26;100645.03;;;28.52;40.03
64544;BME280;50936;51.660;5.616;2023-09-19T10:18:24;100638.44;;;28.53;40.14
64544;BME280;50936;51.660;5.616;2023-09-19T10:21:12;100631.13;;;28.52;40.39
64544;BME280;50936;51.660;5.616;2023-09-19T10:24:00;100636.28;;;28.55;39.98
64544;BME280;50936;51.660;5.616;2023-09-19T10:26:55;100632.44;;;28.56;39.95
64544;BME280;50936;51.660;5.616;2023-09-19T10:29:45;100637.97;;;28.56;40.11
64544;BME280;50936;51.660;5.616;2023-09-19T10:32:39;100639.44;;;28.58;39.87
64544;BME280;50936;51.660;5.616;2023-09-19T10:35:29;100629.88;;;28.54;39.80
64544;BME280;50936;51.660;5.616;2023-09-19T10:38:23;100624.22;;;28.61;39.85
64544;BME280;50936;51.660;5.616;2023-09-19T10:41:14;100628.09;;;28.60;40.03
64544;BME280;50936;51.660;5.616;2023-09-19T10:44:05;100623.88;;;28.57;40.12
64544;BME280;50936;51.660;5.616;2023-09-19T10:46:53;100623.00;;;28.57;40.17
64544;BME280;50936;51.660;5.616;2023-09-19T10:49:44;100635.34;;;28.61;39.85
64544;BME280;50936;51.660;5.616;2023-09-19T10:52:39;100620.38;;;28.62;39.96
64544;BME280;50936;51.660;5.616;2023-09-19T10:55:30;100625.94;;;28.62;39.77
64544;BME280;50936;51.660;5.616;2023-09-19T10:58:45;100632.25;;;28.69;40.00
64544;BME280;50936;51.660;5.616;2023-09-19T11:04:36;100618.22;;;28.64;39.73
64544;BME280;50936;51.660;5.616;2023-09-19T11:07:23;100599.88;;;28.63;39.52
64544;BME280;50936;51.660;5.616;2023-09-19T11:10:48;100596.16;;;28.69;39.54
64544;BME280;50936;51.660;5.616;2023-09-19T11:13:38;100603.25;;;28.65;39.90
64544;BME280;50936;51.660;5.616;2023-09-19T11:16:27;100598.75;;;28.64;39.68
64544;BME280;50936;51.660;5.616;2023-09-19T11:19:15;100584.25;;;28.62;39.32
64544;BME280;50936;51.660;5.616;2023-09-19T11:22:03;100573.75;;;28.64;39.45
64544;BME280;50936;51.660;5.616;2023-09-19T11:24:51;100567.13;;;28.65;39.65
64544;BME280;50936;51.660;5.616;2023-09-19T11:31:43;100564.88;;;28.74;39.36
64544;BME280;50936;51.660;5.616;2023-09-19T11:34:41;100552.28;;;28.71;39.15
64544;BME280;50936;51.660;5.616;2023-09-19T11:40:20;100555.78;;;28.67;38.99
64544;BME280;50936;51.660;5.616;2023-09-19T11:43:28;100542.41;;;28.75;39.13
64544;BME280;50936;51.660;5.616;2023-09-19T11:46:18;100536.72;;;28.70;39.26
64544;BME280;50936;51.660;5.616;2023-09-19T11:49:09;100526.69;;;28.69;38.84
64544;BME280;50936;51.660;5.616;2023-09-19T11:52:02;100543.34;;;28.69;38.94
64544;BME280;50936;51.660;5.616;2023-09-19T11:55:00;100528.75;;;28.74;38.78
64544;BME280;50936;51.660;5.616;2023-09-19T11:57:48;100532.63;;;28.73;39.08
64544;BME280;50936;51.660;5.616;2023-09-19T12:00:37;100523.91;;;28.69;39.08
64544;BME280;50936;51.660;5.616;2023-09-19T12:03:29;100519.78;;;28.72;38.51
64544;BME280;50936;51.660;5.616;2023-09-19T12:06:18;100522.34;;;28.73;38.50
64544;BME280;50936;51.660;5.616;2023-09-19T12:09:14;100539.63;;;28.75;38.73
64544;BME280;50936;51.660;5.616;2023-09-19T12:12:03;100521.50;;;28.73;38.62
64544;BME280;50936;51.660;5.616;2023-09-19T12:14:51;100534.28;;;28.74;38.62
64544;BME280;50936;51.660;5.616;2023-09-19T12:17:40;100536.22;;;28.73;38.64
64544;BME280;50936;51.660;5.616;2023-09-19T12:20:45;100525.28;;;28.78;38.12
64544;BME280;50936;51.660;5.616;2023-09-19T12:23:36;100529.63;;;28.74;38.41
64544;BME280;50936;51.660;5.616;2023-09-19T12:26:26;100553.53;;;28.75;38.28
64544;BME280;50936;51.660;5.616;2023-09-19T12:32:06;100542.41;;;28.75;37.95
64544;BME280;50936;51.660;5.616;2023-09-19T12:34:53;100547.97;;;28.75;38.09
64544;BME280;50936;51.660;5.616;2023-09-19T12:37:51;100553.53;;;28.75;38.09
64544;BME280;50936;51.660;5.616;2023-09-19T12:40:42;100536.00;;;28.75;38.00
64544;BME280;50936;51.660;5.616;2023-09-19T12:43:31;100535.63;;;28.71;37.85
64544;BME280;50936;51.660;5.616;2023-09-19T12:46:21;100560.03;;;28.69;37.93
64544;BME280;50936;51.660;5.616;2023-09-19T12:49:19;100535.16;;;28.74;37.88
64544;BME280;50936;51.660;5.616;2023-09-19T12:52:07;100539.25;;;28.72;37.76
64544;BME280;50936;51.660;5.616;2023-09-19T12:54:54;100546.13;;;28.69;38.01
64544;BME280;50936;51.660;5.616;2023-09-19T12:57:42;100553.63;;;28.69;37.66
64544;BME280;50936;51.660;5.616;2023-09-19T13:00:34;100533.06;;;28.70;37.78
64544;BME280;50936;51.660;5.616;2023-09-19T13:06:12;100543.81;;;28.66;37.98
64544;BME280;50936;51.660;5.616;2023-09-19T13:09:11;100534.56;;;28.72;37.91
64544;BME280;50936;51.660;5.616;2023-09-19T13:11:58;100542.50;;;28.69;37.83
64544;BME280;50936;51.660;5.616;2023-09-19T13:14:46;100536.56;;;28.65;37.76
64544;BME280;50936;51.660;5.616;2023-09-19T13:17:45;100535.63;;;28.71;37.71
64544;BME280;50936;51.660;5.616;2023-09-19T13:20:33;100530.53;;;28.68;37.53
64544;BME280;50936;51.660;5.616;2023-09-19T13:23:26;100543.34;;;28.69;37.79
64544;BME280;50936;51.660;5.616;2023-09-19T13:26:14;100534.19;;;28.69;37.85
64544;BME280;50936;51.660;5.616;2023-09-19T13:29:01;100523.28;;;28.67;38.02
64544;BME280;50936;51.660;5.616;2023-09-19T13:31:52;100532.22;;;28.69;37.45
64544;BME280;50936;51.660;5.616;2023-09-19T13:34:40;100536.09;;;28.68;37.49
64544;BME280;50936;51.660;5.616;2023-09-19T13:37:27;100545.53;;;28.67;37.53
64544;BME280;50936;51.660;5.616;2023-09-19T13:40:15;100549.38;;;28.66;37.46
64544;BME280;50936;51.660;5.616;2023-09-19T13:43:02;100543.81;;;28.66;37.56
64544;BME280;50936;51.660;5.616;2023-09-19T13:45:50;100531.84;;;28.66;37.68
64544;BME280;50936;51.660;5.616;2023-09-19T13:48:37;100532.09;;;28.64;37.54
64544;BME280;50936;51.660;5.616;2023-09-19T13:51:26;100539.97;;;28.67;37.48
64544;BME280;50936;51.660;5.616;2023-09-19T13:54:13;100548.06;;;28.69;37.65
64544;BME280;50936;51.660;5.616;2023-09-19T13:57:01;100546.59;;;28.66;37.80
64544;BME280;50936;51.660;5.616;2023-09-19T13:59:48;100529.31;;;28.64;37.60
64544;BME280;50936;51.660;5.616;2023-09-19T14:02:35;100527.13;;;28.66;37.58
64544;BME280;50936;51.660;5.616;2023-09-19T14:05:24;100534.41;;;28.67;37.52
64544;BME280;50936;51.660;5.616;2023-09-19T14:08:14;100524.97;;;28.68;37.52
64544;BME280;50936;51.660;5.616;2023-09-19T14:11:08;100530.06;;;28.71;37.52
64544;BME280;50936;51.660;5.616;2023-09-19T14:13:56;100537.78;;;28.69;37.58
64544;BME280;50936;51.660;5.616;2023-09-19T14:16:47;100526.91;;;28.68;37.54
64544;BME280;50936;51.660;5.616;2023-09-19T14:19:34;100525.84;;;28.69;37.96
64544;BME280;50936;51.660;5.616;2023-09-19T14:22:23;100530.28;;;28.70;37.66
64544;BME280;50936;51.660;5.616;2023-09-19T14:25:10;100537.19;;;28.67;37.53
64544;BME280;50936;51.660;5.616;2023-09-19T14:27:58;100537.78;;;28.69;37.77
64544;BME280;50936;51.660;5.616;2023-09-19T14:30:45;100528.84;;;28.67;37.58
64544;BME280;50936;51.660;5.616;2023-09-19T14:33:33;100532.47;;;28.68;37.82
64544;BME280;50936;51.660;5.616;2023-09-19T14:36:20;100543.81;;;28.66;37.92
64544;BME280;50936;51.660;5.616;2023-09-19T14:39:08;100530.53;;;28.68;37.71
64544;BME280;50936;51.660;5.616;2023-09-19T14:41:56;100534.41;;;28.67;37.65
64544;BME280;50936;51.660;5.616;2023-09-19T14:44:43;100530.53;;;28.68;37.69
64544;BME280;50936;51.660;5.616;2023-09-19T14:47:30;100523.28;;;28.67;37.65
64544;BME280;50936;51.660;5.616;2023-09-19T14:50:20;100520.91;;;28.71;37.67
64544;BME280;50936;51.660;5.616;2023-09-19T14:53:09;100524.97;;;28.68;37.86
64544;BME280;50936;51.660;5.616;2023-09-19T14:56:01;100514.72;;;28.69;37.98
64544;BME280;50936;51.660;5.616;2023-09-19T14:58:50;100506.84;;;28.66;37.81
64544;BME280;50936;51.660;5.616;2023-09-19T15:01:37;100505.78;;;28.67;37.85
64544;BME280;50936;51.660;5.616;2023-09-19T15:04:27;100517.28;;;28.70;37.72
64544;BME280;50936;51.660;5.616;2023-09-19T15:07:14;100518.34;;;28.69;37.68
64544;BME280;50936;51.660;5.616;2023-09-19T15:10:03;100510.84;;;28.70;37.86
64544;BME280;50936;51.660;5.616;2023-09-19T15:12:53;100507.69;;;28.66;38.21
64544;BME280;50936;51.660;5.616;2023-09-19T15:15:40;100527.53;;;28.70;37.75
64544;BME280;50936;51.660;5.616;2023-09-19T15:18:30;100520.06;;;28.70;37.74
64544;BME280;50936;51.660;5.616;2023-09-19T15:21:18;100522.19;;;28.68;37.79
64544;BME280;50936;51.660;5.616;2023-09-19T15:24:05;100520.66;;;28.72;38.15